sensor_id;sensor_type;location;lat;lon;timestamp;P1;durP1;ratioP1;P2;durP2;ratioP2
52878;SDS011;38747;53.140;6.498;2022-11-02T00:02:22;7.60;;;1.15;;
52878;SDS011;38747;53.140;6.498;2022-11-02T00:04:47;8.10;;;1.30;;
52878;SDS011;38747;53.140;6.498;2022-11-02T00:07:13;8.37;;;1.60;;
52878;SDS011;38747;53.140;6.498;2022-11-02T00:09:39;6.25;;;0.90;;
52878;SDS011;38747;53.140;6.498;2022-11-02T00:12:05;8.60;;;1.23;;
52878;SDS011;38747;53.140;6.498;2022-11-02T00:14:31;8.03;;;1.10;;
52878;SDS011;38747;53.140;6.498;2022-11-02T00:16:57;7.30;;;0.80;;
52878;SDS011;38747;53.140;6.498;2022-11-02T00:19:23;7.77;;;1.10;;
52878;SDS011;38747;53.140;6.498;2022-11-02T00:21:49;8.80;;;1.13;;
52878;SDS011;38747;53.140;6.498;2022-11-02T00:24:14;7.95;;;0.98;;
52878;SDS011;38747;53.140;6.498;2022-11-02T00:26:42;5.60;;;0.80;;
52878;SDS011;38747;53.140;6.498;2022-11-02T00:29:08;7.30;;;0.83;;
52878;SDS011;38747;53.140;6.498;2022-11-02T00:31:33;5.73;;;0.77;;
52878;SDS011;38747;53.140;6.498;2022-11-02T00:33:59;7.13;;;0.90;;
52878;SDS011;38747;53.140;6.498;2022-11-02T00:36:25;6.87;;;0.87;;
52878;SDS011;38747;53.140;6.498;2022-11-02T00:38:51;6.35;;;0.90;;
52878;SDS011;38747;53.140;6.498;2022-11-02T00:41:18;8.48;;;1.08;;
52878;SDS011;38747;53.140;6.498;2022-11-02T00:43:44;5.67;;;0.80;;
52878;SDS011;38747;53.140;6.498;2022-11-02T00:46:12;6.60;;;0.80;;
52878;SDS011;38747;53.140;6.498;2022-11-02T00:48:38;6.80;;;1.30;;
52878;SDS011;38747;53.140;6.498;2022-11-02T00:51:04;5.43;;;0.77;;
52878;SDS011;38747;53.140;6.498;2022-11-02T00:53:29;6.40;;;1.23;;
52878;SDS011;38747;53.140;6.498;2022-11-02T00:55:55;4.93;;;0.80;;
52878;SDS011;38747;53.140;6.498;2022-11-02T00:58:21;3.65;;;0.73;;
52878;SDS011;38747;53.140;6.498;2022-11-02T01:00:46;3.70;;;0.70;;
52878;SDS011;38747;53.140;6.498;2022-11-02T01:03:12;4.05;;;0.70;;
52878;SDS011;38747;53.140;6.498;2022-11-02T01:05:38;4.83;;;0.80;;
52878;SDS011;38747;53.140;6.498;2022-11-02T01:08:06;4.17;;;0.70;;
52878;SDS011;38747;53.140;6.498;2022-11-02T01:10:32;7.80;;;1.00;;
52878;SDS011;38747;53.140;6.498;2022-11-02T01:12:57;4.85;;;0.70;;
52878;SDS011;38747;53.140;6.498;2022-11-02T01:15:24;5.80;;;0.90;;
52878;SDS011;38747;53.140;6.498;2022-11-02T01:17:50;5.18;;;0.60;;
52878;SDS011;38747;53.140;6.498;2022-11-02T01:20:15;4.73;;;0.70;;
52878;SDS011;38747;53.140;6.498;2022-11-02T01:22:41;3.25;;;0.60;;
52878;SDS011;38747;53.140;6.498;2022-11-02T01:25:07;4.43;;;0.73;;
52878;SDS011;38747;53.140;6.498;2022-11-02T01:27:33;4.38;;;0.70;;
52878;SDS011;38747;53.140;6.498;2022-11-02T01:29:58;4.27;;;0.67;;
52878;SDS011;38747;53.140;6.498;2022-11-02T01:32:24;2.85;;;0.57;;
52878;SDS011;38747;53.140;6.498;2022-11-02T01:34:55;3.90;;;0.70;;
52878;SDS011;38747;53.140;6.498;2022-11-02T01:37:21;2.00;;;0.60;;
52878;SDS011;38747;53.140;6.498;2022-11-02T01:39:46;2.73;;;0.80;;
52878;SDS011;38747;53.140;6.498;2022-11-02T01:42:16;2.85;;;0.50;;
52878;SDS011;38747;53.140;6.498;2022-11-02T01:44:43;3.40;;;0.60;;
52878;SDS011;38747;53.140;6.498;2022-11-02T01:47:15;4.15;;;0.70;;
52878;SDS011;38747;53.140;6.498;2022-11-02T01:49:46;4.37;;;0.83;;
52878;SDS011;38747;53.140;6.498;2022-11-02T01:52:15;4.03;;;0.80;;
52878;SDS011;38747;53.140;6.498;2022-11-02T01:54:45;4.00;;;0.88;;
52878;SDS011;38747;53.140;6.498;2022-11-02T01:57:15;4.80;;;0.60;;
52878;SDS011;38747;53.140;6.498;2022-11-02T01:59:45;3.83;;;1.25;;
52878;SDS011;38747;53.140;6.498;2022-11-02T02:02:20;5.00;;;0.90;;
52878;SDS011;38747;53.140;6.498;2022-11-02T02:04:48;5.85;;;0.85;;
52878;SDS011;38747;53.140;6.498;2022-11-02T02:07:17;5.38;;;1.00;;
52878;SDS011;38747;53.140;6.498;2022-11-02T02:09:43;4.93;;;1.17;;
52878;SDS011;38747;53.140;6.498;2022-11-02T02:12:10;3.83;;;0.90;;
52878;SDS011;38747;53.140;6.498;2022-11-02T02:14:38;5.17;;;1.10;;
52878;SDS011;38747;53.140;6.498;2022-11-02T02:23:25;6.20;;;1.30;;
52878;SDS011;38747;53.140;6.498;2022-11-02T02:26:06;4.88;;;1.40;;
52878;SDS011;38747;53.140;6.498;2022-11-02T02:32:03;3.75;;;1.10;;
52878;SDS011;38747;53.140;6.498;2022-11-02T02:34:46;6.47;;;1.52;;
52878;SDS011;38747;53.140;6.498;2022-11-02T02:37:26;8.02;;;1.60;;
52878;SDS011;38747;53.140;6.498;2022-11-02T02:40:11;6.03;;;1.40;;
52878;SDS011;38747;53.140;6.498;2022-11-02T02:48:40;10.30;;;2.00;;
52878;SDS011;38747;53.140;6.498;2022-11-02T02:53:20;6.80;;;1.75;;
52878;SDS011;38747;53.140;6.498;2022-11-02T02:55:49;8.10;;;1.40;;
52878;SDS011;38747;53.140;6.498;2022-11-02T02:58:21;7.72;;;1.42;;
52878;SDS011;38747;53.140;6.498;2022-11-02T03:00:54;3.42;;;1.10;;
52878;SDS011;38747;53.140;6.498;2022-11-02T03:03:24;4.80;;;1.10;;
52878;SDS011;38747;53.140;6.498;2022-11-02T03:06:09;5.95;;;1.05;;
52878;SDS011;38747;53.140;6.498;2022-11-02T03:08:47;5.97;;;0.90;;
52878;SDS011;38747;53.140;6.498;2022-11-02T03:11:41;4.63;;;0.70;;
52878;SDS011;38747;53.140;6.498;2022-11-02T03:14:27;6.10;;;1.10;;
52878;SDS011;38747;53.140;6.498;2022-11-02T03:17:19;3.58;;;0.70;;
52878;SDS011;38747;53.140;6.498;2022-11-02T03:20:01;4.00;;;0.60;;
52878;SDS011;38747;53.140;6.498;2022-11-02T03:22:48;3.53;;;0.67;;
52878;SDS011;38747;53.140;6.498;2022-11-02T03:25:31;4.60;;;0.80;;
52878;SDS011;38747;53.140;6.498;2022-11-02T03:28:05;5.95;;;0.70;;
52878;SDS011;38747;53.140;6.498;2022-11-02T03:30:33;5.15;;;0.70;;
52878;SDS011;38747;53.140;6.498;2022-11-02T03:33:08;4.30;;;0.70;;
52878;SDS011;38747;53.140;6.498;2022-11-02T03:38:34;5.88;;;0.82;;
52878;SDS011;38747;53.140;6.498;2022-11-02T03:41:07;4.97;;;0.90;;
52878;SDS011;38747;53.140;6.498;2022-11-02T03:43:35;5.03;;;0.68;;
52878;SDS011;38747;53.140;6.498;2022-11-02T03:46:04;4.95;;;0.80;;
52878;SDS011;38747;53.140;6.498;2022-11-02T03:48:36;6.77;;;0.80;;
52878;SDS011;38747;53.140;6.498;2022-11-02T03:51:10;6.60;;;1.00;;
52878;SDS011;38747;53.140;6.498;2022-11-02T03:53:47;7.28;;;1.00;;
52878;SDS011;38747;53.140;6.498;2022-11-02T03:56:29;3.13;;;0.75;;
52878;SDS011;38747;53.140;6.498;2022-11-02T03:59:01;5.82;;;1.23;;
52878;SDS011;38747;53.140;6.498;2022-11-02T04:01:28;4.80;;;0.70;;
52878;SDS011;38747;53.140;6.498;2022-11-02T04:03:55;5.60;;;0.98;;
52878;SDS011;38747;53.140;6.498;2022-11-02T04:06:21;7.57;;;1.17;;
52878;SDS011;38747;53.140;6.498;2022-11-02T04:08:49;8.50;;;1.00;;
52878;SDS011;38747;53.140;6.498;2022-11-02T04:11:18;4.47;;;0.70;;
52878;SDS011;38747;53.140;6.498;2022-11-02T04:14:02;7.32;;;1.00;;
52878;SDS011;38747;53.140;6.498;2022-11-02T04:16:49;9.55;;;0.90;;
52878;SDS011;38747;53.140;6.498;2022-11-02T04:19:38;7.75;;;0.80;;
52878;SDS011;38747;53.140;6.498;2022-11-02T04:22:03;7.53;;;1.20;;
52878;SDS011;38747;53.140;6.498;2022-11-02T04:24:48;6.32;;;0.60;;
52878;SDS011;38747;53.140;6.498;2022-11-02T04:27:32;6.57;;;0.85;;
52878;SDS011;38747;53.140;6.498;2022-11-02T04:29:58;7.65;;;0.98;;
52878;SDS011;38747;53.140;6.498;2022-11-02T04:32:24;5.23;;;0.73;;
52878;SDS011;38747;53.140;6.498;2022-11-02T04:35:08;7.45;;;1.00;;
52878;SDS011;38747;53.140;6.498;2022-11-02T04:37:38;7.68;;;0.90;;
52878;SDS011;38747;53.140;6.498;2022-11-02T04:40:23;7.97;;;0.90;;
52878;SDS011;38747;53.140;6.498;2022-11-02T04:42:49;6.00;;;0.97;;
52878;SDS011;38747;53.140;6.498;2022-11-02T04:45:15;5.78;;;0.90;;
52878;SDS011;38747;53.140;6.498;2022-11-02T04:47:40;7.57;;;0.90;;
52878;SDS011;38747;53.140;6.498;2022-11-02T04:50:06;5.65;;;0.95;;
52878;SDS011;38747;53.140;6.498;2022-11-02T04:52:32;5.57;;;1.00;;
52878;SDS011;38747;53.140;6.498;2022-11-02T04:54:58;6.83;;;0.90;;
52878;SDS011;38747;53.140;6.498;2022-11-02T04:57:23;8.00;;;0.88;;
52878;SDS011;38747;53.140;6.498;2022-11-02T04:59:49;7.87;;;1.40;;
52878;SDS011;38747;53.140;6.498;2022-11-02T05:02:15;7.68;;;1.25;;
52878;SDS011;38747;53.140;6.498;2022-11-02T05:04:41;7.07;;;0.87;;
52878;SDS011;38747;53.140;6.498;2022-11-02T05:07:07;9.80;;;1.38;;
52878;SDS011;38747;53.140;6.498;2022-11-02T05:09:34;8.90;;;1.13;;
52878;SDS011;38747;53.140;6.498;2022-11-02T05:12:00;8.18;;;1.02;;
52878;SDS011;38747;53.140;6.498;2022-11-02T05:14:29;5.07;;;1.15;;
52878;SDS011;38747;53.140;6.498;2022-11-02T05:16:58;5.68;;;1.10;;
52878;SDS011;38747;53.140;6.498;2022-11-02T05:19:23;6.03;;;1.40;;
52878;SDS011;38747;53.140;6.498;2022-11-02T05:21:49;9.02;;;1.67;;
52878;SDS011;38747;53.140;6.498;2022-11-02T05:24:14;8.73;;;1.10;;
52878;SDS011;38747;53.140;6.498;2022-11-02T05:26:43;6.87;;;1.20;;
52878;SDS011;38747;53.140;6.498;2022-11-02T05:29:18;9.63;;;1.58;;
52878;SDS011;38747;53.140;6.498;2022-11-02T05:31:43;8.57;;;1.40;;
52878;SDS011;38747;53.140;6.498;2022-11-02T05:34:09;9.77;;;1.40;;
52878;SDS011;38747;53.140;6.498;2022-11-02T05:36:34;8.23;;;1.50;;
52878;SDS011;38747;53.140;6.498;2022-11-02T05:39:00;9.05;;;1.48;;
52878;SDS011;38747;53.140;6.498;2022-11-02T05:41:26;8.90;;;1.60;;
52878;SDS011;38747;53.140;6.498;2022-11-02T05:43:51;10.82;;;1.40;;
52878;SDS011;38747;53.140;6.498;2022-11-02T05:46:17;9.27;;;1.83;;
52878;SDS011;38747;53.140;6.498;2022-11-02T05:48:43;11.23;;;1.60;;
52878;SDS011;38747;53.140;6.498;2022-11-02T05:51:08;10.90;;;1.50;;
52878;SDS011;38747;53.140;6.498;2022-11-02T05:53:34;9.45;;;1.80;;
52878;SDS011;38747;53.140;6.498;2022-11-02T05:56:03;9.45;;;1.67;;
52878;SDS011;38747;53.140;6.498;2022-11-02T05:58:30;10.65;;;1.60;;
52878;SDS011;38747;53.140;6.498;2022-11-02T06:01:03;9.93;;;1.70;;
52878;SDS011;38747;53.140;6.498;2022-11-02T06:03:31;9.43;;;1.40;;
52878;SDS011;38747;53.140;6.498;2022-11-02T06:05:57;11.25;;;1.50;;
52878;SDS011;38747;53.140;6.498;2022-11-02T06:08:24;11.40;;;1.85;;
52878;SDS011;38747;53.140;6.498;2022-11-02T06:10:50;9.27;;;1.50;;
52878;SDS011;38747;53.140;6.498;2022-11-02T06:13:15;11.63;;;1.30;;
52878;SDS011;38747;53.140;6.498;2022-11-02T06:15:41;11.00;;;1.48;;
52878;SDS011;38747;53.140;6.498;2022-11-02T06:18:07;8.47;;;1.40;;
52878;SDS011;38747;53.140;6.498;2022-11-02T06:20:32;9.27;;;1.40;;
52878;SDS011;38747;53.140;6.498;2022-11-02T06:22:58;10.95;;;2.05;;
52878;SDS011;38747;53.140;6.498;2022-11-02T06:25:24;10.57;;;1.17;;
52878;SDS011;38747;53.140;6.498;2022-11-02T06:27:51;8.70;;;1.75;;
52878;SDS011;38747;53.140;6.498;2022-11-02T06:30:19;7.55;;;1.52;;
52878;SDS011;38747;53.140;6.498;2022-11-02T06:32:45;10.53;;;1.20;;
52878;SDS011;38747;53.140;6.498;2022-11-02T06:35:12;8.10;;;1.60;;
52878;SDS011;38747;53.140;6.498;2022-11-02T06:37:38;10.35;;;1.30;;
52878;SDS011;38747;53.140;6.498;2022-11-02T06:40:03;8.47;;;1.70;;
52878;SDS011;38747;53.140;6.498;2022-11-02T06:42:29;8.65;;;1.30;;
52878;SDS011;38747;53.140;6.498;2022-11-02T06:44:55;9.90;;;1.40;;
52878;SDS011;38747;53.140;6.498;2022-11-02T06:47:28;12.00;;;1.52;;
52878;SDS011;38747;53.140;6.498;2022-11-02T06:49:55;7.88;;;1.58;;
52878;SDS011;38747;53.140;6.498;2022-11-02T06:52:21;5.33;;;1.43;;
52878;SDS011;38747;53.140;6.498;2022-11-02T06:54:46;9.20;;;1.55;;
52878;SDS011;38747;53.140;6.498;2022-11-02T06:57:12;9.40;;;1.57;;
52878;SDS011;38747;53.140;6.498;2022-11-02T06:59:37;11.57;;;1.60;;
52878;SDS011;38747;53.140;6.498;2022-11-02T07:02:03;10.00;;;1.20;;
52878;SDS011;38747;53.140;6.498;2022-11-02T07:04:28;12.90;;;1.70;;
52878;SDS011;38747;53.140;6.498;2022-11-02T07:06:55;12.65;;;2.00;;
52878;SDS011;38747;53.140;6.498;2022-11-02T07:09:21;9.05;;;1.48;;
52878;SDS011;38747;53.140;6.498;2022-11-02T07:11:46;11.20;;;1.57;;
52878;SDS011;38747;53.140;6.498;2022-11-02T07:14:12;12.03;;;2.03;;
52878;SDS011;38747;53.140;6.498;2022-11-02T07:16:38;9.52;;;1.50;;
52878;SDS011;38747;53.140;6.498;2022-11-02T07:19:03;8.37;;;1.33;;
52878;SDS011;38747;53.140;6.498;2022-11-02T07:21:29;11.48;;;1.55;;
52878;SDS011;38747;53.140;6.498;2022-11-02T07:23:55;9.53;;;1.40;;
52878;SDS011;38747;53.140;6.498;2022-11-02T07:26:20;7.68;;;1.15;;
52878;SDS011;38747;53.140;6.498;2022-11-02T07:28:46;11.30;;;1.53;;
52878;SDS011;38747;53.140;6.498;2022-11-02T07:31:12;12.27;;;1.40;;
52878;SDS011;38747;53.140;6.498;2022-11-02T07:33:37;10.03;;;1.33;;
52878;SDS011;38747;53.140;6.498;2022-11-02T07:36:03;7.25;;;1.23;;
52878;SDS011;38747;53.140;6.498;2022-11-02T07:38:30;10.65;;;1.50;;
52878;SDS011;38747;53.140;6.498;2022-11-02T07:40:55;7.60;;;1.40;;
52878;SDS011;38747;53.140;6.498;2022-11-02T07:43:21;7.27;;;0.90;;
52878;SDS011;38747;53.140;6.498;2022-11-02T07:45:47;6.93;;;0.70;;
52878;SDS011;38747;53.140;6.498;2022-11-02T07:48:13;7.72;;;0.90;;
52878;SDS011;38747;53.140;6.498;2022-11-02T07:50:38;9.27;;;1.00;;
52878;SDS011;38747;53.140;6.498;2022-11-02T07:53:04;8.77;;;1.30;;
52878;SDS011;38747;53.140;6.498;2022-11-02T07:55:30;8.53;;;1.10;;
52878;SDS011;38747;53.140;6.498;2022-11-02T07:57:57;6.18;;;1.25;;
52878;SDS011;38747;53.140;6.498;2022-11-02T08:00:25;7.32;;;0.90;;
52878;SDS011;38747;53.140;6.498;2022-11-02T08:02:55;5.47;;;0.97;;
52878;SDS011;38747;53.140;6.498;2022-11-02T08:05:22;7.03;;;1.13;;
52878;SDS011;38747;53.140;6.498;2022-11-02T08:08:02;6.18;;;0.82;;
52878;SDS011;38747;53.140;6.498;2022-11-02T08:10:30;5.13;;;1.08;;
52878;SDS011;38747;53.140;6.498;2022-11-02T08:12:57;7.72;;;0.82;;
52878;SDS011;38747;53.140;6.498;2022-11-02T08:15:23;5.90;;;0.83;;
52878;SDS011;38747;53.140;6.498;2022-11-02T08:17:59;7.00;;;0.80;;
52878;SDS011;38747;53.140;6.498;2022-11-02T08:20:29;4.10;;;0.70;;
52878;SDS011;38747;53.140;6.498;2022-11-02T08:22:55;8.77;;;1.10;;
52878;SDS011;38747;53.140;6.498;2022-11-02T08:25:24;8.05;;;1.33;;
52878;SDS011;38747;53.140;6.498;2022-11-02T08:27:50;5.68;;;1.27;;
52878;SDS011;38747;53.140;6.498;2022-11-02T08:30:16;9.87;;;1.10;;
52878;SDS011;38747;53.140;6.498;2022-11-02T08:32:42;8.52;;;1.23;;
52878;SDS011;38747;53.140;6.498;2022-11-02T08:35:07;6.25;;;0.85;;
52878;SDS011;38747;53.140;6.498;2022-11-02T08:37:33;7.43;;;1.00;;
52878;SDS011;38747;53.140;6.498;2022-11-02T08:39:59;5.78;;;0.80;;
52878;SDS011;38747;53.140;6.498;2022-11-02T08:42:24;6.00;;;1.00;;
52878;SDS011;38747;53.140;6.498;2022-11-02T08:44:53;7.47;;;1.00;;
52878;SDS011;38747;53.140;6.498;2022-11-02T08:47:19;6.07;;;0.90;;
52878;SDS011;38747;53.140;6.498;2022-11-02T08:49:45;7.03;;;1.15;;
52878;SDS011;38747;53.140;6.498;2022-11-02T08:52:11;9.00;;;1.65;;
52878;SDS011;38747;53.140;6.498;2022-11-02T08:54:39;8.30;;;1.10;;
52878;SDS011;38747;53.140;6.498;2022-11-02T08:57:05;9.25;;;1.20;;
52878;SDS011;38747;53.140;6.498;2022-11-02T08:59:31;7.18;;;0.93;;
52878;SDS011;38747;53.140;6.498;2022-11-02T09:01:57;7.93;;;0.90;;
52878;SDS011;38747;53.140;6.498;2022-11-02T09:04:24;6.93;;;1.08;;
52878;SDS011;38747;53.140;6.498;2022-11-02T09:06:53;9.45;;;0.98;;
52878;SDS011;38747;53.140;6.498;2022-11-02T09:09:19;10.90;;;1.60;;
52878;SDS011;38747;53.140;6.498;2022-11-02T09:11:44;9.15;;;1.13;;
52878;SDS011;38747;53.140;6.498;2022-11-02T09:14:13;6.35;;;0.85;;
52878;SDS011;38747;53.140;6.498;2022-11-02T09:16:39;6.67;;;1.10;;
52878;SDS011;38747;53.140;6.498;2022-11-02T09:19:04;10.52;;;1.08;;
52878;SDS011;38747;53.140;6.498;2022-11-02T09:21:30;9.17;;;1.20;;
52878;SDS011;38747;53.140;6.498;2022-11-02T09:23:56;6.35;;;0.85;;
52878;SDS011;38747;53.140;6.498;2022-11-02T09:26:22;10.85;;;1.65;;
52878;SDS011;38747;53.140;6.498;2022-11-02T09:28:48;10.67;;;1.40;;
52878;SDS011;38747;53.140;6.498;2022-11-02T09:31:13;11.73;;;1.10;;
52878;SDS011;38747;53.140;6.498;2022-11-02T09:33:39;9.43;;;1.00;;
52878;SDS011;38747;53.140;6.498;2022-11-02T09:36:05;11.85;;;1.52;;
52878;SDS011;38747;53.140;6.498;2022-11-02T09:38:34;8.20;;;1.00;;
52878;SDS011;38747;53.140;6.498;2022-11-02T09:46:40;10.03;;;1.27;;
52878;SDS011;38747;53.140;6.498;2022-11-02T09:49:13;10.27;;;1.25;;
52878;SDS011;38747;53.140;6.498;2022-11-02T09:51:48;7.60;;;0.93;;
52878;SDS011;38747;53.140;6.498;2022-11-02T09:57:08;7.63;;;1.13;;
52878;SDS011;38747;53.140;6.498;2022-11-02T09:59:44;10.97;;;1.67;;
52878;SDS011;38747;53.140;6.498;2022-11-02T10:02:14;9.20;;;1.10;;
52878;SDS011;38747;53.140;6.498;2022-11-02T10:04:54;12.77;;;1.30;;
52878;SDS011;38747;53.140;6.498;2022-11-02T10:13:27;8.63;;;0.90;;
52878;SDS011;38747;53.140;6.498;2022-11-02T10:18:35;7.97;;;1.15;;
52878;SDS011;38747;53.140;6.498;2022-11-02T10:21:35;7.78;;;1.05;;
52878;SDS011;38747;53.140;6.498;2022-11-02T10:23:56;9.33;;;1.30;;
52878;SDS011;38747;53.140;6.498;2022-11-02T10:26:26;8.35;;;1.52;;
52878;SDS011;38747;53.140;6.498;2022-11-02T10:28:59;7.07;;;0.90;;
52878;SDS011;38747;53.140;6.498;2022-11-02T10:31:31;8.55;;;1.13;;
52878;SDS011;38747;53.140;6.498;2022-11-02T10:33:58;8.07;;;1.00;;
52878;SDS011;38747;53.140;6.498;2022-11-02T10:39:39;8.82;;;0.93;;
52878;SDS011;38747;53.140;6.498;2022-11-02T10:53:18;16.75;;;1.23;;
52878;SDS011;38747;53.140;6.498;2022-11-02T10:56:45;8.57;;;1.00;;
52878;SDS011;38747;53.140;6.498;2022-11-02T10:58:49;6.60;;;0.80;;
52878;SDS011;38747;53.140;6.498;2022-11-02T11:01:21;9.88;;;0.90;;
52878;SDS011;38747;53.140;6.498;2022-11-02T11:03:59;8.13;;;0.80;;
52878;SDS011;38747;53.140;6.498;2022-11-02T11:08:59;11.07;;;0.90;;
52878;SDS011;38747;53.140;6.498;2022-11-02T11:11:27;7.50;;;0.90;;
52878;SDS011;38747;53.140;6.498;2022-11-02T11:13:57;9.25;;;1.35;;
52878;SDS011;38747;53.140;6.498;2022-11-02T11:16:32;8.32;;;1.10;;
52878;SDS011;38747;53.140;6.498;2022-11-02T11:18:59;13.50;;;1.10;;
52878;SDS011;38747;53.140;6.498;2022-11-02T11:21:35;7.45;;;1.05;;
52878;SDS011;38747;53.140;6.498;2022-11-02T11:29:37;7.95;;;1.27;;
52878;SDS011;38747;53.140;6.498;2022-11-02T11:32:06;7.25;;;0.95;;
52878;SDS011;38747;53.140;6.498;2022-11-02T11:37:24;7.50;;;1.10;;
52878;SDS011;38747;53.140;6.498;2022-11-02T11:39:58;11.43;;;1.00;;
52878;SDS011;38747;53.140;6.498;2022-11-02T11:42:27;7.25;;;1.30;;
52878;SDS011;38747;53.140;6.498;2022-11-02T11:48:03;7.35;;;0.90;;
52878;SDS011;38747;53.140;6.498;2022-11-02T11:50:30;6.37;;;0.77;;
52878;SDS011;38747;53.140;6.498;2022-11-02T11:55:51;9.43;;;1.10;;
52878;SDS011;38747;53.140;6.498;2022-11-02T11:58:51;9.18;;;0.80;;
52878;SDS011;38747;53.140;6.498;2022-11-02T12:01:18;7.03;;;1.05;;
52878;SDS011;38747;53.140;6.498;2022-11-02T12:03:54;7.13;;;0.90;;
52878;SDS011;38747;53.140;6.498;2022-11-02T12:09:16;8.95;;;1.08;;
52878;SDS011;38747;53.140;6.498;2022-11-02T12:12:20;5.53;;;0.75;;
52878;SDS011;38747;53.140;6.498;2022-11-02T12:18:12;8.10;;;0.90;;
52878;SDS011;38747;53.140;6.498;2022-11-02T12:23:34;8.52;;;1.13;;
52878;SDS011;38747;53.140;6.498;2022-11-02T12:31:45;6.73;;;0.90;;
52878;SDS011;38747;53.140;6.498;2022-11-02T12:34:38;8.45;;;0.90;;
52878;SDS011;38747;53.140;6.498;2022-11-02T12:42:39;12.70;;;1.15;;
52878;SDS011;38747;53.140;6.498;2022-11-02T12:47:53;7.68;;;0.75;;
52878;SDS011;38747;53.140;6.498;2022-11-02T12:55:40;9.88;;;1.30;;
52878;SDS011;38747;53.140;6.498;2022-11-02T12:58:18;8.30;;;1.30;;
52878;SDS011;38747;53.140;6.498;2022-11-02T13:00:54;9.50;;;1.10;;
52878;SDS011;38747;53.140;6.498;2022-11-02T13:06:13;8.43;;;0.80;;
52878;SDS011;38747;53.140;6.498;2022-11-02T13:08:48;6.35;;;0.90;;
52878;SDS011;38747;53.140;6.498;2022-11-02T13:11:22;11.30;;;1.00;;
52878;SDS011;38747;53.140;6.498;2022-11-02T13:13:58;12.00;;;1.25;;
52878;SDS011;38747;53.140;6.498;2022-11-02T13:16:32;7.90;;;0.90;;
52878;SDS011;38747;53.140;6.498;2022-11-02T13:19:18;10.02;;;1.00;;
52878;SDS011;38747;53.140;6.498;2022-11-02T13:21:50;8.10;;;1.27;;
52878;SDS011;38747;53.140;6.498;2022-11-02T13:24:21;6.80;;;0.80;;
52878;SDS011;38747;53.140;6.498;2022-11-02T13:26:50;7.38;;;0.73;;
52878;SDS011;38747;53.140;6.498;2022-11-02T13:29:21;9.93;;;1.08;;
52878;SDS011;38747;53.140;6.498;2022-11-02T13:32:01;9.07;;;1.15;;
52878;SDS011;38747;53.140;6.498;2022-11-02T13:34:48;8.95;;;1.23;;
52878;SDS011;38747;53.140;6.498;2022-11-02T13:37:27;14.13;;;1.30;;
52878;SDS011;38747;53.140;6.498;2022-11-02T13:40:00;9.85;;;1.00;;
52878;SDS011;38747;53.140;6.498;2022-11-02T13:48:00;7.55;;;0.75;;
52878;SDS011;38747;53.140;6.498;2022-11-02T13:50:31;10.37;;;1.00;;
52878;SDS011;38747;53.140;6.498;2022-11-02T13:53:02;8.65;;;1.05;;
52878;SDS011;38747;53.140;6.498;2022-11-02T13:55:40;8.63;;;1.00;;
52878;SDS011;38747;53.140;6.498;2022-11-02T13:58:30;7.38;;;1.08;;
52878;SDS011;38747;53.140;6.498;2022-11-02T14:01:01;8.85;;;1.00;;
52878;SDS011;38747;53.140;6.498;2022-11-02T21:53:30;8.48;;;1.50;;
52878;SDS011;38747;53.140;6.498;2022-11-02T21:56:02;8.32;;;2.97;;
52878;SDS011;38747;53.140;6.498;2022-11-02T21:58:29;9.30;;;2.13;;
52878;SDS011;38747;53.140;6.498;2022-11-02T22:00:56;8.30;;;2.63;;
52878;SDS011;38747;53.140;6.498;2022-11-02T22:03:45;9.60;;;2.38;;
52878;SDS011;38747;53.140;6.498;2022-11-02T22:06:11;9.18;;;1.52;;
52878;SDS011;38747;53.140;6.498;2022-11-02T22:08:37;11.88;;;1.73;;
52878;SDS011;38747;53.140;6.498;2022-11-02T22:11:19;11.50;;;1.43;;
52878;SDS011;38747;53.140;6.498;2022-11-02T22:13:47;12.25;;;1.50;;
52878;SDS011;38747;53.140;6.498;2022-11-02T22:16:14;7.78;;;1.50;;
52878;SDS011;38747;53.140;6.498;2022-11-02T22:18:54;9.25;;;1.50;;
52878;SDS011;38747;53.140;6.498;2022-11-02T22:21:22;8.40;;;1.60;;
52878;SDS011;38747;53.140;6.498;2022-11-02T22:23:50;11.33;;;1.60;;
52878;SDS011;38747;53.140;6.498;2022-11-02T22:26:17;9.55;;;1.60;;
52878;SDS011;38747;53.140;6.498;2022-11-02T22:28:45;9.93;;;2.20;;
52878;SDS011;38747;53.140;6.498;2022-11-02T22:33:40;9.10;;;1.58;;
52878;SDS011;38747;53.140;6.498;2022-11-02T22:36:07;10.33;;;1.63;;
52878;SDS011;38747;53.140;6.498;2022-11-02T22:38:34;10.48;;;1.33;;
52878;SDS011;38747;53.140;6.498;2022-11-02T22:41:15;11.13;;;2.00;;
52878;SDS011;38747;53.140;6.498;2022-11-02T22:43:42;11.07;;;1.77;;
52878;SDS011;38747;53.140;6.498;2022-11-02T22:46:08;14.83;;;3.03;;
52878;SDS011;38747;53.140;6.498;2022-11-02T22:48:34;11.60;;;2.50;;
52878;SDS011;38747;53.140;6.498;2022-11-02T22:51:00;11.10;;;2.22;;
52878;SDS011;38747;53.140;6.498;2022-11-02T22:53:26;10.00;;;1.73;;
52878;SDS011;38747;53.140;6.498;2022-11-02T22:55:59;11.48;;;1.70;;
52878;SDS011;38747;53.140;6.498;2022-11-02T22:58:26;8.18;;;1.75;;
52878;SDS011;38747;53.140;6.498;2022-11-02T23:00:53;7.68;;;1.80;;
52878;SDS011;38747;53.140;6.498;2022-11-02T23:03:19;9.63;;;2.13;;
52878;SDS011;38747;53.140;6.498;2022-11-02T23:05:45;9.25;;;1.60;;
52878;SDS011;38747;53.140;6.498;2022-11-02T23:08:11;10.57;;;1.67;;
52878;SDS011;38747;53.140;6.498;2022-11-02T23:10:37;11.10;;;1.93;;
52878;SDS011;38747;53.140;6.498;2022-11-02T23:13:22;13.75;;;2.30;;
52878;SDS011;38747;53.140;6.498;2022-11-02T23:15:48;15.00;;;3.15;;
52878;SDS011;38747;53.140;6.498;2022-11-02T23:18:13;10.20;;;2.00;;
52878;SDS011;38747;53.140;6.498;2022-11-02T23:20:39;15.75;;;4.43;;
52878;SDS011;38747;53.140;6.498;2022-11-02T23:23:05;13.17;;;2.70;;
52878;SDS011;38747;53.140;6.498;2022-11-02T23:25:53;10.77;;;2.05;;
52878;SDS011;38747;53.140;6.498;2022-11-02T23:28:20;13.25;;;1.88;;
52878;SDS011;38747;53.140;6.498;2022-11-02T23:31:04;10.02;;;1.77;;
52878;SDS011;38747;53.140;6.498;2022-11-02T23:33:48;9.63;;;1.80;;
52878;SDS011;38747;53.140;6.498;2022-11-02T23:36:14;9.70;;;2.07;;
52878;SDS011;38747;53.140;6.498;2022-11-02T23:38:41;13.30;;;1.90;;
52878;SDS011;38747;53.140;6.498;2022-11-02T23:41:27;12.63;;;2.72;;
52878;SDS011;38747;53.140;6.498;2022-11-02T23:43:54;11.05;;;1.50;;
52878;SDS011;38747;53.140;6.498;2022-11-02T23:46:45;10.50;;;2.05;;
52878;SDS011;38747;53.140;6.498;2022-11-02T23:49:15;8.48;;;1.73;;
52878;SDS011;38747;53.140;6.498;2022-11-02T23:51:41;9.73;;;1.40;;
52878;SDS011;38747;53.140;6.498;2022-11-02T23:54:26;11.35;;;2.08;;
52878;SDS011;38747;53.140;6.498;2022-11-02T23:57:10;11.10;;;2.00;;
52878;SDS011;38747;53.140;6.498;2022-11-02T23:59:36;9.48;;;1.33;;
